Time;durP1;ratioP1;P1;durP2;ratioP2;P2;SDS_P1;SDS_P2;PMS_P1;PMS_P2;Temp;Humidity;BMP_temperature;BMP_pressure;BME280_temperature;BME280_humidity;BME280_pressure;Samples;Min_cycle;Max_cycle;Signal;HPM_P1;HPM_P2
2023/02/07 00:00:26;;;;;;;36.20;15.32;;;-8.30;99.90;;;;;;4177775;28;20029;-63
2023/02/07 00:02:27;;;;;;;32.53;14.82;;;-8.40;99.90;;;;;;4180261;28;20092;-63
2023/02/07 00:04:28;;;;;;;35.22;16.23;;;-8.50;99.90;;;;;;4177966;28;20095;-66
2023/02/07 00:06:35;;;;;;;36.65;15.40;;;-8.60;99.90;;;;;;4178270;28;20543;-62
2023/02/07 00:08:36;;;;;;;39.97;17.90;;;-8.60;99.90;;;;;;4177745;28;20025;-62
2023/02/07 00:10:38;;;;;;;36.20;15.88;;;-8.70;99.90;;;;;;4173998;28;20022;-62
2023/02/07 00:12:39;;;;;;;40.58;17.70;;;-8.90;99.90;;;;;;4172004;28;20063;-62
2023/02/07 00:14:40;;;;;;;35.05;15.93;;;-9.00;99.90;;;;;;4178661;28;20041;-63
2023/02/07 00:16:41;;;;;;;41.35;15.35;;;-9.00;99.90;;;;;;4179427;28;20473;-62
2023/02/07 00:18:43;;;;;;;31.80;14.07;;;-9.10;99.90;;;;;;4179250;28;20025;-63
2023/02/07 00:20:44;;;;;;;35.55;14.43;;;-9.10;99.90;;;;;;4179451;28;20102;-68
2023/02/07 00:22:45;;;;;;;31.05;14.88;;;-9.10;99.90;;;;;;4177323;28;20091;-64
2023/02/07 00:24:46;;;;;;;33.97;13.88;;;-9.00;99.90;;;;;;4180034;28;20078;-64
2023/02/07 00:26:48;;;;;;;31.60;12.68;;;-9.00;99.90;;;;;;4174354;28;20537;-64
2023/02/07 00:28:50;;;;;;;30.75;12.68;;;-9.00;99.90;;;;;;4174614;28;20063;-63
2023/02/07 00:31:03;;;;;;;29.75;13.63;;;-8.90;99.90;;;;;;4166909;28;20429;-63
2023/02/07 00:33:04;;;;;;;27.80;11.45;;;-8.90;99.90;;;;;;4172555;28;20098;-64
2023/02/07 00:35:05;;;;;;;32.92;13.25;;;-8.90;99.90;;;;;;4167502;28;20037;-63
2023/02/07 00:37:08;;;;;;;31.08;15.02;;;-8.90;99.90;;;;;;4164317;28;20037;-66
2023/02/07 00:39:14;;;;;;;34.08;14.43;;;-8.90;99.90;;;;;;4161786;28;20052;-63
2023/02/07 00:41:17;;;;;;;31.42;13.90;;;-8.90;99.90;;;;;;4164346;28;20464;-65
2023/02/07 00:43:18;;;;;;;36.58;15.05;;;-8.90;99.90;;;;;;4178730;28;20017;-64
2023/02/07 00:45:19;;;;;;;33.47;13.85;;;-9.00;99.90;;;;;;4179332;28;20075;-64
2023/02/07 00:47:20;;;;;;;38.33;14.88;;;-9.10;99.90;;;;;;4179157;28;20025;-63
2023/02/07 00:49:21;;;;;;;33.33;14.93;;;-9.10;99.90;;;;;;4162157;28;20038;-65
2023/02/07 00:51:24;;;;;;;37.45;15.05;;;-9.10;99.90;;;;;;4163430;28;20099;-62
2023/02/07 00:53:26;;;;;;;34.70;13.90;;;-9.20;99.90;;;;;;4175525;28;20174;-63
2023/02/07 00:55:28;;;;;;;38.67;15.23;;;-9.20;99.90;;;;;;4176338;28;20418;-65
2023/02/07 00:57:29;;;;;;;32.67;14.43;;;-9.30;99.90;;;;;;4164959;28;20054;-62
2023/02/07 00:59:30;;;;;;;40.97;16.48;;;-9.30;99.90;;;;;;4169000;28;20103;-63
2023/02/07 01:01:31;;;;;;;39.97;15.85;;;-9.30;99.90;;;;;;4171200;28;20423;-63
2023/02/07 01:03:32;;;;;;;35.10;14.40;;;-9.40;99.90;;;;;;4177727;28;20098;-62
2023/02/07 01:05:34;;;;;;;31.17;14.57;;;-9.40;99.90;;;;;;4175665;28;20025;-62
2023/02/07 01:07:35;;;;;;;33.35;14.77;;;-9.40;99.90;;;;;;4166431;28;20037;-64
2023/02/07 01:09:38;;;;;;;37.60;14.75;;;-9.40;99.90;;;;;;4161635;28;20042;-62
2023/02/07 01:11:39;;;;;;;35.28;14.40;;;-9.40;99.90;;;;;;4167373;28;20021;-63
2023/02/07 01:13:42;;;;;;;40.97;17.05;;;-9.40;99.90;;;;;;4177793;28;20098;-62
2023/02/07 01:15:46;;;;;;;38.05;16.48;;;-9.40;99.90;;;;;;4178137;28;20095;-63
2023/02/07 01:17:47;;;;;;;40.22;15.40;;;-9.40;99.90;;;;;;4147744;28;20096;-62
2023/02/07 01:19:48;;;;;;;35.00;14.43;;;-9.50;99.90;;;;;;4162227;28;20029;-62
2023/02/07 01:21:49;;;;;;;32.72;13.98;;;-9.50;99.90;;;;;;4162315;28;20128;-64
2023/02/07 01:23:51;;;;;;;35.10;14.35;;;-9.50;99.90;;;;;;4169106;28;20555;-62
2023/02/07 01:25:52;;;;;;;31.17;14.00;;;-9.50;99.90;;;;;;4168585;28;20037;-62
2023/02/07 01:27:53;;;;;;;32.60;13.63;;;-9.60;99.90;;;;;;4161270;28;20033;-62
2023/02/07 01:29:54;;;;;;;34.28;14.05;;;-9.50;99.90;;;;;;4178617;28;20091;-63
2023/02/07 01:31:55;;;;;;;32.55;13.57;;;-9.60;99.90;;;;;;4161291;28;20030;-63
2023/02/07 01:33:59;;;;;;;35.53;16.25;;;-9.60;99.90;;;;;;4163635;28;20079;-63
2023/02/07 01:36:04;;;;;;;34.03;14.95;;;-9.60;99.90;;;;;;4160391;28;20119;-62
2023/02/07 01:38:06;;;;;;;31.83;13.77;;;-9.60;99.90;;;;;;4163401;28;20030;-64
2023/02/07 01:40:09;;;;;;;36.30;14.27;;;-9.60;99.90;;;;;;4171083;28;20033;-63
2023/02/07 01:42:15;;;;;;;30.27;13.43;;;-9.60;99.90;;;;;;4176682;28;20044;-62
2023/02/07 01:44:22;;;;;;;31.38;12.75;;;-9.60;99.90;;;;;;4146728;28;20427;-63
2023/02/07 01:46:24;;;;;;;32.45;13.48;;;-9.50;99.90;;;;;;4162393;28;20083;-63
2023/02/07 01:48:31;;;;;;;27.63;10.88;;;-9.50;99.90;;;;;;4161624;28;20653;-67
2023/02/07 01:50:34;;;;;;;31.50;12.00;;;-9.40;99.90;;;;;;4162156;28;20465;-64
2023/02/07 01:52:40;;;;;;;28.52;12.00;;;-9.40;99.90;;;;;;4163146;28;20042;-63
2023/02/07 01:54:44;;;;;;;25.80;11.07;;;-9.30;99.90;;;;;;4178333;28;20465;-66
2023/02/07 01:56:50;;;;;;;25.55;11.30;;;-9.30;99.90;;;;;;4169716;28;20135;-63
2023/02/07 01:58:52;;;;;;;27.15;11.93;;;-9.30;99.90;;;;;;4161095;28;20045;-63
2023/02/07 02:00:54;;;;;;;23.25;9.95;;;-9.20;99.90;;;;;;4169587;28;20527;-63
2023/02/07 02:02:56;;;;;;;23.92;9.32;;;-9.20;99.90;;;;;;4161399;28;20076;-64
2023/02/07 02:04:57;;;;;;;20.20;9.35;;;-9.20;99.90;;;;;;4162559;28;20037;-65
2023/02/07 02:06:59;;;;;;;26.40;9.90;;;-9.10;99.90;;;;;;4161855;28;20119;-63
2023/02/07 02:09:06;;;;;;;24.05;9.63;;;-9.10;99.90;;;;;;4175660;28;20033;-62
2023/02/07 02:11:40;;;;;;;32.15;10.60;;;-9.10;99.90;;;;;;4176447;28;20558;-62
2023/02/07 02:14:22;;;;;;;22.20;10.60;;;-9.00;99.90;;;;;;4173457;28;20044;-63
2023/02/07 02:16:52;;;;;;;33.13;12.15;;;-9.00;99.90;;;;;;4143636;28;20088;-64
2023/02/07 02:19:18;;;;;;;29.45;13.02;;;-9.00;99.90;;;;;;4170046;28;20151;-64
2023/02/07 02:21:25;;;;;;;30.85;13.93;;;-9.10;99.90;;;;;;4175499;28;20164;-63
2023/02/07 02:23:50;;;;;;;31.58;12.43;;;-9.20;99.90;;;;;;4177222;28;20526;-62
2023/02/07 02:26:20;;;;;;;33.97;14.25;;;-9.30;99.90;;;;;;4176576;28;20091;-62
2023/02/07 02:28:24;;;;;;;34.90;14.35;;;-9.40;99.90;;;;;;4139290;28;20076;-63
2023/02/07 02:30:34;;;;;;;31.55;13.93;;;-9.50;99.90;;;;;;4154836;28;20633;-63
2023/02/07 02:32:38;;;;;;;31.63;12.88;;;-9.50;99.90;;;;;;4163489;28;20362;-63
2023/02/07 02:34:49;;;;;;;33.70;13.45;;;-9.60;99.90;;;;;;4176411;28;20544;-66
2023/02/07 02:37:30;;;;;;;28.63;12.40;;;-9.60;99.90;;;;;;4165353;28;20094;-63
2023/02/07 02:40:01;;;;;;;32.78;12.15;;;-9.50;99.90;;;;;;4120678;28;20037;-64
2023/02/07 02:42:41;;;;;;;28.35;12.85;;;-9.60;99.90;;;;;;4162768;28;20033;-66
2023/02/07 02:44:52;;;;;;;33.47;12.93;;;-9.50;99.90;;;;;;4149134;28;20099;-64
2023/02/07 02:46:54;;;;;;;;;;;-9.50;99.90;;;;;;4170849;28;20024;-65
2023/02/07 02:48:57;;;;;;;27.95;11.45;;;-9.50;99.90;;;;;;4177387;28;20587;-64
2023/02/07 02:50:58;;;;;;;35.85;13.43;;;-9.60;99.90;;;;;;4167855;28;20071;-63
2023/02/07 02:52:59;;;;;;;32.22;13.13;;;-9.60;99.90;;;;;;4176815;28;20029;-66
2023/02/07 02:55:00;;;;;;;29.63;12.98;;;-9.60;99.90;;;;;;4175422;28;20033;-65
2023/02/07 02:57:32;;;;;;;31.55;13.73;;;-9.70;99.90;;;;;;4146198;28;20077;-66
2023/02/07 02:59:33;;;;;;;29.70;12.10;;;-9.70;99.90;;;;;;4171037;28;20033;-67
2023/02/07 03:02:05;;;;;;;27.10;12.55;;;-9.70;99.90;;;;;;4176813;28;20501;-62
2023/02/07 03:04:47;;;;;;;24.23;11.77;;;-9.70;99.90;;;;;;4175715;28;20021;-62
2023/02/07 03:07:11;;;;;;;25.95;11.05;;;-9.70;99.90;;;;;;4131558;28;20084;-62
2023/02/07 03:09:28;;;;;;;23.02;11.80;;;-9.70;99.90;;;;;;4161486;28;20132;-62
2023/02/07 03:11:38;;;;;;;27.45;9.98;;;-9.60;99.90;;;;;;4159952;28;20505;-62
2023/02/07 03:14:20;;;;;;;20.20;9.38;;;-9.60;99.90;;;;;;4162514;28;20552;-62
2023/02/07 03:16:39;;;;;;;26.90;10.27;;;-9.50;99.90;;;;;;4152418;28;20041;-62
2023/02/07 03:18:46;;;;;;;22.35;10.07;;;-9.50;99.90;;;;;;4164398;28;20495;-63
2023/02/07 03:21:14;;;;;;;26.83;11.63;;;-9.50;99.90;;;;;;4163751;28;20091;-63
2023/02/07 03:23:18;;;;;;;22.42;10.10;;;-9.50;99.90;;;;;;4144744;28;20110;-63
2023/02/07 03:25:20;;;;;;;27.08;11.65;;;-9.50;99.90;;;;;;4177353;28;20037;-63
2023/02/07 03:27:22;;;;;;;26.98;11.30;;;-9.50;99.90;;;;;;4179455;28;20079;-64
2023/02/07 03:29:25;;;;;;;26.25;11.23;;;-9.50;99.90;;;;;;4160896;28;20045;-66
2023/02/07 03:31:28;;;;;;;28.17;11.50;;;-9.50;99.90;;;;;;4180302;28;20029;-65
2023/02/07 03:33:30;;;;;;;24.15;10.60;;;-9.50;99.90;;;;;;4171522;28;20038;-64
2023/02/07 03:35:38;;;;;;;25.80;11.23;;;-9.50;99.90;;;;;;4168995;28;20078;-64
2023/02/07 03:37:43;;;;;;;28.23;12.25;;;-9.50;99.90;;;;;;4165731;28;20045;-64
2023/02/07 03:39:45;;;;;;;31.23;11.38;;;-9.50;99.90;;;;;;4180954;28;20435;-63
2023/02/07 03:42:01;;;;;;;27.63;12.32;;;-9.50;99.90;;;;;;4179179;28;20560;-68
2023/02/07 03:44:05;;;;;;;24.67;11.55;;;-9.50;99.90;;;;;;4180385;28;20029;-63
2023/02/07 03:46:10;;;;;;;27.77;11.52;;;-9.50;99.90;;;;;;4177710;28;20531;-65
2023/02/07 03:48:12;;;;;;;25.95;11.90;;;-9.50;99.90;;;;;;4180384;28;20481;-63
2023/02/07 03:50:14;;;;;;;29.38;11.75;;;-9.40;99.90;;;;;;4179484;28;20033;-64
2023/02/07 03:52:15;;;;;;;28.45;11.90;;;-9.50;99.90;;;;;;4180520;28;20036;-63
2023/02/07 03:54:17;;;;;;;29.35;11.32;;;-9.40;99.90;;;;;;4159820;28;20472;-61
2023/02/07 03:56:18;;;;;;;30.88;11.77;;;-9.40;99.90;;;;;;4164257;28;20037;-63
2023/02/07 03:58:19;;;;;;;23.27;10.45;;;-9.40;99.90;;;;;;4162508;28;20057;-64
2023/02/07 04:00:21;;;;;;;26.92;9.75;;;-9.30;99.90;;;;;;4163911;28;20045;-63
2023/02/07 04:02:22;;;;;;;29.70;11.57;;;-9.30;99.90;;;;;;4163096;28;20107;-67
2023/02/07 04:04:23;;;;;;;24.08;11.73;;;-9.30;99.90;;;;;;4176011;28;20033;-66
2023/02/07 04:06:24;;;;;;;26.70;10.52;;;-9.20;99.90;;;;;;4179174;28;20090;-67
2023/02/07 04:08:25;;;;;;;25.30;11.20;;;-9.30;99.90;;;;;;4179675;28;20114;-67
2023/02/07 04:10:27;;;;;;;27.80;11.27;;;-9.30;99.90;;;;;;4179240;28;20523;-66
2023/02/07 04:12:31;;;;;;;27.15;10.10;;;-9.30;99.90;;;;;;4173560;28;20148;-68
2023/02/07 04:14:32;;;;;;;27.65;10.88;;;-9.40;99.90;;;;;;4178424;28;20070;-64
2023/02/07 04:16:33;;;;;;;20.85;9.20;;;-9.40;99.90;;;;;;4177720;28;20087;-64
2023/02/07 04:18:35;;;;;;;25.65;10.43;;;-9.30;99.90;;;;;;4164756;28;20038;-63
2023/02/07 04:20:36;;;;;;;22.52;10.52;;;-9.30;99.90;;;;;;4174895;28;20045;-63
2023/02/07 04:22:37;;;;;;;22.23;10.60;;;-9.20;99.90;;;;;;4180214;28;20025;-63
2023/02/07 04:24:38;;;;;;;25.35;10.48;;;-9.20;99.90;;;;;;4176921;28;20021;-63
2023/02/07 04:26:39;;;;;;;19.67;8.90;;;-9.20;99.90;;;;;;4169260;28;20049;-64
2023/02/07 04:28:40;;;;;;;29.25;11.13;;;-9.10;99.90;;;;;;4161664;28;20107;-63
2023/02/07 04:30:42;;;;;;;22.65;10.13;;;-9.10;99.90;;;;;;4163398;28;20535;-63
2023/02/07 04:32:43;;;;;;;17.98;7.85;;;-9.00;99.90;;;;;;4163373;28;20486;-63
2023/02/07 04:34:44;;;;;;;20.10;9.43;;;-9.00;99.90;;;;;;4177172;28;20857;-64
2023/02/07 04:36:45;;;;;;;18.58;8.43;;;-9.00;99.90;;;;;;4178982;28;20501;-63
2023/02/07 04:38:46;;;;;;;21.92;9.27;;;-9.00;99.90;;;;;;4178895;28;20025;-62
2023/02/07 04:40:47;;;;;;;21.45;9.75;;;-9.00;99.90;;;;;;4151875;28;20046;-63
2023/02/07 04:42:48;;;;;;;22.30;10.73;;;-9.00;99.90;;;;;;4161450;28;20045;-64
2023/02/07 04:44:49;;;;;;;24.80;10.68;;;-8.90;99.90;;;;;;4164166;28;20029;-64
2023/02/07 04:46:51;;;;;;;25.60;10.13;;;-8.90;99.90;;;;;;4171656;28;20032;-63
2023/02/07 04:48:52;;;;;;;24.75;9.27;;;-8.80;99.90;;;;;;4179749;28;20025;-63
2023/02/07 04:50:53;;;;;;;25.13;10.07;;;-8.70;99.90;;;;;;4178280;28;20033;-63
2023/02/07 04:52:54;;;;;;;25.20;9.50;;;-8.70;99.90;;;;;;4179093;28;20041;-63
2023/02/07 04:54:57;;;;;;;24.00;9.60;;;-8.60;99.90;;;;;;4177826;28;20427;-64
2023/02/07 04:56:58;;;;;;;22.45;10.32;;;-8.60;99.90;;;;;;4173717;28;20033;-65
2023/02/07 04:58:59;;;;;;;25.40;10.30;;;-8.60;99.90;;;;;;4161683;28;20049;-65
2023/02/07 05:01:00;;;;;;;25.38;9.85;;;-8.60;99.90;;;;;;4167598;28;20033;-64
2023/02/07 05:03:01;;;;;;;20.40;9.25;;;-8.60;99.90;;;;;;4162741;28;20064;-65
2023/02/07 05:05:02;;;;;;;23.45;8.52;;;-8.50;99.90;;;;;;4167358;28;20107;-63
2023/02/07 05:07:04;;;;;;;18.70;8.27;;;-8.50;99.90;;;;;;4169528;28;20079;-65
2023/02/07 05:09:05;;;;;;;25.15;9.35;;;-8.50;99.90;;;;;;4162775;28;20040;-64
2023/02/07 05:11:06;;;;;;;20.73;9.05;;;-8.50;99.90;;;;;;4165083;28;20091;-63
2023/02/07 05:13:07;;;;;;;27.70;11.25;;;-8.40;99.90;;;;;;4161463;28;20091;-63
2023/02/07 05:15:09;;;;;;;28.73;11.02;;;-8.30;99.90;;;;;;4171516;28;20377;-61
2023/02/07 05:17:10;;;;;;;17.23;8.40;;;-8.30;99.90;;;;;;4177447;28;20041;-62
2023/02/07 05:19:11;;;;;;;21.70;10.07;;;-8.30;99.90;;;;;;4178204;28;20036;-64
2023/02/07 05:21:13;;;;;;;18.52;8.98;;;-8.30;99.90;;;;;;4177381;28;20091;-62
2023/02/07 05:23:14;;;;;;;15.07;7.65;;;-8.20;99.90;;;;;;4178342;28;20657;-62
2023/02/07 05:25:15;;;;;;;20.88;9.52;;;-8.20;99.90;;;;;;4177831;28;20859;-64
2023/02/07 05:27:16;;;;;;;22.10;9.48;;;-8.30;99.90;;;;;;4171592;28;20481;-64
2023/02/07 05:29:18;;;;;;;20.38;9.57;;;-8.30;99.90;;;;;;4177075;28;20028;-63
2023/02/07 05:31:19;;;;;;;24.33;8.98;;;-8.40;99.90;;;;;;4166691;28;20091;-63
2023/02/07 05:33:20;;;;;;;19.92;8.93;;;-8.40;99.90;;;;;;4161905;28;20037;-63
2023/02/07 05:35:21;;;;;;;20.60;9.40;;;-8.40;99.90;;;;;;4173400;28;20040;-64
2023/02/07 05:37:23;;;;;;;17.77;7.90;;;-8.40;99.90;;;;;;4170487;28;20458;-62
2023/02/07 05:39:24;;;;;;;19.70;9.85;;;-8.40;99.90;;;;;;4148751;28;20080;-67
2023/02/07 05:41:25;;;;;;;21.17;9.25;;;-8.30;99.90;;;;;;4177628;28;20017;-67
2023/02/07 05:43:26;;;;;;;17.77;7.80;;;-8.30;99.90;;;;;;4161947;28;20426;-64
2023/02/07 05:45:27;;;;;;;19.45;9.18;;;-8.30;99.90;;;;;;4161647;28;20160;-69
2023/02/07 05:47:28;;;;;;;20.60;9.05;;;-8.20;99.90;;;;;;4173402;28;20079;-64
2023/02/07 05:49:30;;;;;;;21.23;8.77;;;-8.20;99.90;;;;;;4178902;28;20033;-64
2023/02/07 05:51:31;;;;;;;22.60;8.80;;;-8.10;99.90;;;;;;4177307;28;20029;-63
2023/02/07 05:53:32;;;;;;;19.63;8.40;;;-8.10;99.90;;;;;;4178391;28;20115;-65
2023/02/07 05:55:34;;;;;;;20.95;8.32;;;-8.10;99.90;;;;;;4176529;28;20562;-65
2023/02/07 05:57:35;;;;;;;18.13;9.23;;;-8.00;99.90;;;;;;4178019;28;20045;-64
2023/02/07 05:59:36;;;;;;;16.55;8.07;;;-8.00;99.90;;;;;;4158681;28;20092;-63
2023/02/07 06:01:37;;;;;;;21.95;8.05;;;-7.90;99.90;;;;;;4178397;28;20102;-64
2023/02/07 06:03:38;;;;;;;21.25;8.65;;;-7.90;99.90;;;;;;4177076;28;20445;-65
2023/02/07 06:05:40;;;;;;;19.27;8.27;;;-7.80;99.90;;;;;;4177441;28;20477;-66
2023/02/07 06:07:43;;;;;;;26.73;12.25;;;-7.80;99.90;;;;;;4177351;28;20445;-64
2023/02/07 06:09:44;;;;;;;20.73;10.38;;;-7.70;99.90;;;;;;4176744;28;20107;-66
2023/02/07 06:11:45;;;;;;;22.23;10.15;;;-7.70;99.90;;;;;;4176281;28;20385;-65
2023/02/07 06:13:46;;;;;;;17.25;8.30;;;-7.60;99.90;;;;;;4177013;28;20036;-64
2023/02/07 06:15:47;;;;;;;21.13;9.00;;;-7.60;99.90;;;;;;4178070;28;20033;-64
2023/02/07 06:17:48;;;;;;;26.15;10.93;;;-7.50;99.90;;;;;;4176859;28;20547;-64
2023/02/07 06:19:50;;;;;;;30.30;11.80;;;-7.60;99.90;;;;;;4178044;28;20040;-65
2023/02/07 06:21:53;;;;;;;27.40;12.38;;;-7.70;99.90;;;;;;4176047;28;20029;-61
2023/02/07 06:23:54;;;;;;;33.75;16.23;;;-7.80;99.90;;;;;;4177250;28;20481;-63
2023/02/07 06:25:55;;;;;;;31.30;13.68;;;-7.80;99.90;;;;;;4176705;28;20033;-62
2023/02/07 06:27:56;;;;;;;41.33;16.90;;;-7.90;99.90;;;;;;4177712;28;20025;-63
2023/02/07 06:29:57;;;;;;;38.63;15.18;;;-7.90;99.90;;;;;;4175747;28;20025;-63
2023/02/07 06:31:58;;;;;;;41.70;17.85;;;-8.10;99.90;;;;;;4177869;28;20037;-64
2023/02/07 06:34:00;;;;;;;36.75;17.52;;;-8.20;99.90;;;;;;4176665;28;20461;-64
2023/02/07 06:36:01;;;;;;;42.85;17.92;;;-8.20;99.90;;;;;;4177347;28;20041;-64
2023/02/07 06:38:02;;;;;;;46.15;19.67;;;-8.20;99.90;;;;;;4176002;28;20060;-62
2023/02/07 06:40:04;;;;;;;58.55;20.65;;;-8.10;99.90;;;;;;4176343;28;20087;-63
2023/02/07 06:42:05;;;;;;;64.13;21.20;;;-7.90;99.90;;;;;;4176185;28;20033;-62
2023/02/07 06:44:06;;;;;;;60.08;17.98;;;-7.90;99.90;;;;;;4176932;28;20033;-64
2023/02/07 06:46:07;;;;;;;51.78;17.90;;;-7.70;99.90;;;;;;4176664;28;20037;-63
2023/02/07 06:48:09;;;;;;;51.67;19.45;;;-7.40;99.90;;;;;;4176493;28;20173;-63
2023/02/07 06:50:10;;;;;;;53.60;18.95;;;-7.10;99.90;;;;;;4177241;28;20032;-64
2023/02/07 06:52:12;;;;;;;50.40;18.67;;;-6.60;99.90;;;;;;4160066;28;20042;-65
2023/02/07 06:54:13;;;;;;;42.47;17.00;;;-6.10;99.90;;;;;;4180098;28;20358;-63
2023/02/07 06:56:14;;;;;;;41.33;19.75;;;-5.70;99.90;;;;;;4179806;28;20036;-63
2023/02/07 06:58:15;;;;;;;36.85;16.98;;;-5.30;99.90;;;;;;4180555;28;20379;-64
2023/02/07 07:00:17;;;;;;;42.65;18.27;;;-4.80;99.90;;;;;;4179610;28;20037;-63
2023/02/07 07:02:18;;;;;;;39.42;16.98;;;-4.40;99.90;;;;;;4180903;28;20099;-62
2023/02/07 07:04:19;;;;;;;34.53;18.10;;;-3.80;99.90;;;;;;4179915;28;20473;-66
2023/02/07 07:06:20;;;;;;;38.97;18.83;;;-3.50;99.90;;;;;;4180919;28;20028;-62
2023/02/07 07:08:24;;;;;;;40.15;19.83;;;-3.10;99.90;;;;;;4179796;28;20804;-66
2023/02/07 07:10:25;;;;;;;40.40;21.07;;;-3.00;99.90;;;;;;4179834;28;20037;-64
2023/02/07 07:12:26;;;;;;;39.23;20.27;;;-2.80;99.90;;;;;;4180179;28;20292;-63
2023/02/07 07:14:27;;;;;;;41.57;20.00;;;-2.60;99.90;;;;;;4178736;28;20312;-63
2023/02/07 07:16:28;;;;;;;40.80;19.17;;;-2.50;99.90;;;;;;4162405;28;20286;-66
2023/02/07 07:18:29;;;;;;;51.03;20.27;;;-2.30;99.90;;;;;;4179278;28;20347;-67
2023/02/07 07:20:31;;;;;;;108.83;24.50;;;-1.90;99.90;;;;;;4162916;28;20313;-66
2023/02/07 07:22:32;;;;;;;40.67;18.77;;;-1.70;99.90;;;;;;4179334;28;20343;-63
2023/02/07 07:24:34;;;;;;;45.77;19.50;;;-1.30;99.90;;;;;;4180739;28;20274;-64
2023/02/07 07:26:35;;;;;;;34.70;16.33;;;-0.90;99.90;;;;;;4178664;28;20270;-65
2023/02/07 07:28:36;;;;;;;33.57;16.97;;;-0.50;99.90;;;;;;4180712;28;20804;-64
2023/02/07 07:30:37;;;;;;;32.03;15.40;;;0.00;99.90;;;;;;4179261;28;20796;-63
2023/02/07 07:32:38;;;;;;;34.20;16.13;;;0.40;99.90;;;;;;4180565;28;20336;-63
2023/02/07 07:34:39;;;;;;;48.87;16.80;;;0.90;99.90;;;;;;4179292;28;20819;-62
2023/02/07 07:36:41;;;;;;;34.63;15.13;;;1.20;99.90;;;;;;4162358;28;20263;-62
2023/02/07 07:38:42;;;;;;;28.30;14.50;;;1.40;99.90;;;;;;4179631;28;20343;-64
2023/02/07 07:40:43;;;;;;;25.43;13.47;;;1.50;99.90;;;;;;4180283;28;20856;-65
2023/02/07 07:42:44;;;;;;;27.70;12.77;;;1.70;99.90;;;;;;4179649;28;20296;-64
2023/02/07 07:44:45;;;;;;;22.67;13.47;;;1.70;99.20;;;;;;4179651;28;20284;-63
2023/02/07 07:46:46;;;;;;;26.50;14.77;;;2.10;99.60;;;;;;4180194;28;20266;-63
2023/02/07 07:48:47;;;;;;;33.07;14.17;;;2.40;99.60;;;;;;4179164;28;20266;-64
2023/02/07 07:50:49;;;;;;;41.27;17.10;;;2.50;99.20;;;;;;4180836;28;20320;-64
2023/02/07 07:52:50;;;;;;;30.43;14.97;;;2.40;99.00;;;;;;4178642;28;20278;-64
2023/02/07 07:54:51;;;;;;;35.13;16.27;;;2.40;97.60;;;;;;4180396;28;20749;-64
2023/02/07 07:56:52;;;;;;;39.97;16.10;;;2.20;97.90;;;;;;4178346;28;20274;-63
2023/02/07 07:58:54;;;;;;;38.50;18.47;;;2.00;97.90;;;;;;4179596;28;20347;-63
2023/02/07 08:00:56;;;;;;;27.53;14.70;;;1.80;98.20;;;;;;4179158;28;20257;-63
2023/02/07 08:02:57;;;;;;;24.57;12.93;;;1.50;98.00;;;;;;4179411;28;20274;-64
2023/02/07 08:04:58;;;;;;;27.53;13.90;;;1.30;97.10;;;;;;4178777;28;20263;-64
2023/02/07 08:06:59;;;;;;;32.63;14.30;;;1.20;97.60;;;;;;4180037;28;20328;-64
2023/02/07 08:09:00;;;;;;;31.30;14.90;;;1.00;97.70;;;;;;4179010;28;20247;-64
2023/02/07 08:11:03;;;;;;;93.13;22.47;;;0.50;96.60;;;;;;4178907;28;20355;-64
2023/02/07 08:13:05;;;;;;;60.90;17.43;;;0.30;98.30;;;;;;4178931;28;20645;-63
2023/02/07 08:15:08;;;;;;;48.93;16.60;;;0.30;99.00;;;;;;4179286;28;21276;-63
2023/02/07 08:17:09;;;;;;;43.37;17.17;;;0.20;97.90;;;;;;4179575;28;20262;-63
2023/02/07 08:19:10;;;;;;;32.13;14.93;;;0.00;98.30;;;;;;4178843;28;20286;-66
2023/02/07 08:21:11;;;;;;;40.20;16.53;;;-0.70;97.20;;;;;;4179831;28;20258;-65
2023/02/07 08:23:13;;;;;;;25.70;14.37;;;-1.40;97.80;;;;;;4178738;28;20804;-63
2023/02/07 08:25:14;;;;;;;29.43;14.27;;;-1.70;98.90;;;;;;4179872;28;20266;-63
2023/02/07 08:27:15;;;;;;;29.17;14.87;;;-2.00;99.20;;;;;;4178071;28;20258;-64
2023/02/07 08:29:16;;;;;;;33.37;12.83;;;-1.60;99.70;;;;;;4179739;28;20339;-62
2023/02/07 08:31:18;;;;;;;31.47;14.43;;;-1.30;99.90;;;;;;4178361;28;20277;-64
2023/02/07 08:33:19;;;;;;;28.30;15.17;;;-0.90;99.60;;;;;;4179194;28;20339;-63
2023/02/07 08:35:20;;;;;;;28.53;13.30;;;-0.40;99.50;;;;;;4178399;28;20270;-63
2023/02/07 08:37:22;;;;;;;31.03;14.83;;;0.20;99.40;;;;;;4179506;28;21149;-61
2023/02/07 08:39:23;;;;;;;32.40;16.27;;;0.30;97.90;;;;;;4178469;28;20297;-67
2023/02/07 08:41:24;;;;;;;30.33;14.23;;;0.10;97.90;;;;;;4179246;28;20282;-66
2023/02/07 08:43:25;;;;;;;35.93;18.00;;;0.00;98.40;;;;;;4177640;28;20304;-64
2023/02/07 08:45:27;;;;;;;32.73;16.30;;;-0.10;98.40;;;;;;4179003;28;20316;-64
2023/02/07 08:47:29;;;;;;;35.27;17.60;;;-0.10;98.40;;;;;;4178824;28;20258;-64
2023/02/07 08:49:30;;;;;;;33.83;15.03;;;0.00;98.90;;;;;;4178697;28;20266;-66
2023/02/07 08:51:31;;;;;;;28.90;14.57;;;0.40;99.20;;;;;;4178607;28;20266;-65
2023/02/07 08:53:33;;;;;;;37.07;17.07;;;0.80;99.10;;;;;;4178061;28;20323;-64
2023/02/07 08:55:34;;;;;;;30.67;13.67;;;1.00;98.40;;;;;;4178943;28;20308;-63
2023/02/07 08:57:35;;;;;;;33.43;16.83;;;1.20;98.20;;;;;;4176539;28;20332;-63
2023/02/07 08:59:36;;;;;;;34.37;18.23;;;1.30;97.60;;;;;;4178416;28;20305;-64
2023/02/07 09:01:37;;;;;;;27.23;14.50;;;1.30;97.10;;;;;;4177952;28;20324;-64
2023/02/07 09:03:39;;;;;;;24.33;13.07;;;1.10;97.00;;;;;;4179143;28;20320;-66
2023/02/07 09:05:40;;;;;;;25.87;12.07;;;1.10;97.30;;;;;;4178061;28;20270;-64
2023/02/07 09:07:41;;;;;;;26.80;13.27;;;0.80;96.80;;;;;;4178374;28;20320;-63
2023/02/07 09:09:42;;;;;;;24.50;11.47;;;1.10;97.40;;;;;;4177943;28;20308;-62
2023/02/07 09:11:44;;;;;;;23.50;12.03;;;1.00;96.80;;;;;;4178790;28;20258;-63
2023/02/07 09:13:45;;;;;;;21.30;11.47;;;0.90;96.40;;;;;;4177160;28;20903;-63
2023/02/07 09:15:54;;;;;;;22.43;12.17;;;0.80;96.70;;;;;;4177290;28;20273;-64
2023/02/07 09:17:55;;;;;;;32.47;15.70;;;0.90;96.90;;;;;;4177219;28;20266;-62
2023/02/07 09:19:56;;;;;;;29.47;16.83;;;1.00;97.40;;;;;;4178735;28;20296;-63
2023/02/07 09:21:58;;;;;;;26.07;12.50;;;1.50;97.30;;;;;;4178242;28;20266;-63
2023/02/07 09:23:59;;;;;;;31.07;12.50;;;1.90;96.80;;;;;;4176935;28;20703;-63
2023/02/07 09:26:03;;;;;;;26.93;12.50;;;2.10;96.30;;;;;;4178706;28;20335;-63
2023/02/07 09:28:04;;;;;;;11.60;6.30;;;2.30;96.00;;;;;;4176934;28;20387;-65
2023/02/07 09:30:06;;;;;;;22.77;7.50;;;1.70;93.90;;;;;;4178523;28;20675;-62
2023/02/07 09:32:07;;;;;;;16.80;7.40;;;1.20;94.50;;;;;;4176900;28;20378;-63
2023/02/07 09:34:08;;;;;;;20.43;7.03;;;0.80;95.40;;;;;;4178700;28;20270;-64
2023/02/07 09:36:29;;;;;;;25.90;7.87;;;0.20;93.80;;;;;;4176835;28;20270;-62
2023/02/07 09:38:31;;;;;;;18.47;6.53;;;0.00;95.00;;;;;;4178146;28;20364;-65
2023/02/07 09:40:34;;;;;;;31.37;8.97;;;-0.10;94.20;;;;;;4177194;28;20266;-63
2023/02/07 09:42:41;;;;;;;15.87;5.97;;;-0.60;94.40;;;;;;4177773;28;20274;-62
2023/02/07 09:44:48;;;;;;;10.93;4.70;;;-0.60;95.60;;;;;;4176483;28;20427;-63
2023/02/07 09:46:54;;;;;;;28.73;7.40;;;-0.70;94.20;;;;;;4160191;28;20345;-62
2023/02/07 09:49:16;;;;;;;24.87;6.83;;;-0.80;94.10;;;;;;4177369;28;20278;-65
2023/02/07 09:51:21;;;;;;;13.13;5.23;;;-1.20;94.10;;;;;;4178795;28;20332;-63
2023/02/07 09:53:53;;;;;;;10.37;4.37;;;-1.40;95.10;;;;;;4176736;28;20281;-62
2023/02/07 09:55:58;;;;;;;35.20;6.50;;;-1.40;94.70;;;;;;4177492;28;20294;-62
2023/02/07 09:58:13;;;;;;;32.90;7.67;;;-1.50;94.50;;;;;;4176251;28;20282;-63
2023/02/07 10:00:28;;;;;;;66.30;11.90;;;-1.70;94.50;;;;;;4177945;28;20335;-64
2023/02/07 10:02:39;;;;;;;29.17;7.30;;;-1.70;94.90;;;;;;4175871;28;20332;-64
2023/02/07 10:04:43;;;;;;;;;;;-1.60;95.40;;;;;;4178534;28;20277;-67
2023/02/07 10:06:46;;;;;;;10.10;4.37;;;-1.50;94.20;;;;;;4176693;28;19954;-62
2023/02/07 10:08:52;;;;;;;7.67;3.77;;;-1.80;94.60;;;;;;4177909;28;20851;-64
2023/02/07 10:11:06;;;;;;;10.00;5.10;;;-1.80;95.30;;;;;;4176936;28;20761;-64
2023/02/07 10:13:30;;;;;;;12.17;5.13;;;-1.60;95.40;;;;;;4177907;28;20262;-62
2023/02/07 10:15:40;;;;;;;31.40;6.57;;;-1.60;95.30;;;;;;4176832;28;20335;-63
2023/02/07 10:18:01;;;;;;;14.63;5.28;;;-1.50;95.80;;;;;;4177923;28;20320;-62
2023/02/07 10:20:31;;;;;;;15.10;4.73;;;-1.50;95.70;;;;;;4177163;28;20045;-67
2023/02/07 10:22:39;;;;;;;8.63;4.80;;;-1.20;95.70;;;;;;4177567;28;21071;-61
2023/02/07 10:24:56;;;;;;;13.20;4.93;;;-1.10;95.30;;;;;;4176913;28;20320;-64
2023/02/07 10:27:03;;;;;;;9.40;5.13;;;-1.20;94.70;;;;;;4177085;28;20339;-66
2023/02/07 10:29:30;;;;;;;11.53;4.73;;;-1.30;95.30;;;;;;4176215;28;20262;-65
2023/02/07 10:31:34;;;;;;;9.33;5.43;;;-1.30;95.20;;;;;;4166177;28;20278;-63
2023/02/07 10:33:42;;;;;;;6.43;3.80;;;-1.30;95.30;;;;;;4177127;28;20274;-64
2023/02/07 10:35:45;;;;;;;11.47;4.97;;;-1.30;95.30;;;;;;4176500;28;20298;-63